Overview Statistics Trail Chart Weather Telemetry Raw packets
 

This is the latest recevied telemetry packets stored in our database for station/object DL2JA-2. If no packets are shown the sender has not sent any telemetry packets the latest 10 day(s).

Telemetry packets is used to share measurements like repeteater parameters, battery voltage, radiation readings (or any other measurements).

<< 1 2 3 4 >>
Time Press* Temp.in* Hum* eGAS* Temp.out*
1788563495 959.2 hPa 26.9 C deg 33.4 % 331 - 0 C deg
1788563473 959.2 hPa 26.9 C deg 33.4 % 331 - 0 C deg
1788561643 958.9 hPa 26.8 C deg 33.4 % 316 - 0 C deg
1788559813 958.6 hPa 26.9 C deg 33.3 % 308 - 0 C deg
1788558011 958.5 hPa 26.9 C deg 33.3 % 300 - 0 C deg
1788557983 958.5 hPa 26.9 C deg 33.3 % 300 - 0 C deg
1788556153 958.4 hPa 26.9 C deg 33.3 % 293 - 0 C deg
1788554327 958.4 hPa 26.8 C deg 33.4 % 289 - 0 C deg
1788554323 958.4 hPa 26.8 C deg 33.4 % 289 - 0 C deg
1788552496 958.3 hPa 27 C deg 33.2 % 288 - 0 C deg
1788552493 958.3 hPa 27 C deg 33.2 % 288 - 0 C deg
1788550682 958.2 hPa 27 C deg 33.2 % 292 - 0 C deg
1788550663 958.2 hPa 27 C deg 33.2 % 292 - 0 C deg
1788548846 958 hPa 27.1 C deg 33 % 295 - 0 C deg
1788548832 958 hPa 27.1 C deg 33 % 295 - 0 C deg
1788547036 957.8 hPa 27.1 C deg 33 % 295 - 0 C deg
1788547002 957.8 hPa 27.1 C deg 33 % 295 - 0 C deg
1788545174 957.5 hPa 27.1 C deg 33.1 % 296 - 0 C deg
1788545172 957.5 hPa 27.1 C deg 33.1 % 296 - 0 C deg
1788543348 957.2 hPa 27.1 C deg 33.1 % 294 - 0 C deg
1788543342 957.2 hPa 27.1 C deg 33.1 % 294 - 0 C deg
1788541565 957.1 hPa 27 C deg 33.3 % 294 - 0 C deg
1788541512 957.1 hPa 27 C deg 33.3 % 294 - 0 C deg
1788539686 957.1 hPa 27.1 C deg 33.2 % 296 - 0 C deg
1788539682 957.1 hPa 27.1 C deg 33.2 % 296 - 0 C deg
*Used Equation Coefficients:
Press: 0, 1, 0
Temp.in: 0, 1, 0
Hum: 0, 1, 0
eGAS: 0, 1, 0
Temp.out: 0, 1, 0

  • The parameter names for the analog channels will be Value1, Value2, Value3 (up to Value5) if station has not sent a PARAM-packet that specifies the parameter names for each analog channel.
  • Each analog value is a decimal number between 000 and 255 (according to APRS specifications). The receiver use the telemetry equation coefficientsto to restore the original sensor values. If no EQNS-packet with equation coefficients is sent we will show the values as is (this corresponds to the equation coefficients a=0, b=1 and c=0).
    The sent equation coefficients is used in the equation: a * value2 + b * value + c.
  • The units for the analog values will not be shown if station has not sent a UNIT-packet specifying what unit's to use.
  • The parameter names for the digital bits will be Bit1, Bit2, Bit3 (up to Bit8) if station has not sent a PARAM-packet that specifies the parameter names for each digital bit.
  • All bit labels will be named "On" if station has not sent a UNIT-packet that specifies the label of each bit.
  • A bit is considered to be On when the bit is 1 if station has not sent a BITS-packet that specifies another "Bit sense" (a BITS-packet specify the state of the bits that match the BIT labels)